sensor_id;sensor_type;location;lat;lon;timestamp;temperature;humidity
11107;DHT22;5607;48.302;14.294;2023-07-31T00:00:18;19.80;35.90
11107;DHT22;5607;48.302;14.294;2023-07-31T00:03:04;19.90;62.10
11107;DHT22;5607;48.302;14.294;2023-07-31T00:05:51;19.90;58.50
11107;DHT22;5607;48.302;14.294;2023-07-31T00:08:37;19.90;60.70
11107;DHT22;5607;48.302;14.294;2023-07-31T00:11:23;19.80;56.40
11107;DHT22;5607;48.302;14.294;2023-07-31T00:14:09;19.80;59.00
11107;DHT22;5607;48.302;14.294;2023-07-31T00:16:55;19.80;58.40
11107;DHT22;5607;48.302;14.294;2023-07-31T00:19:42;19.80;76.70
11107;DHT22;5607;48.302;14.294;2023-07-31T00:22:28;19.70;56.40
11107;DHT22;5607;48.302;14.294;2023-07-31T00:25:14;19.70;30.70
11107;DHT22;5607;48.302;14.294;2023-07-31T00:28:00;19.60;30.30
11107;DHT22;5607;48.302;14.294;2023-07-31T00:30:46;19.60;12.80
11107;DHT22;5607;48.302;14.294;2023-07-31T00:33:34;19.60;4.80
11107;DHT22;5607;48.302;14.294;2023-07-31T00:36:20;19.60;1.50
11107;DHT22;5607;48.302;14.294;2023-07-31T00:39:07;19.60;1.00
11107;DHT22;5607;48.302;14.294;2023-07-31T00:41:53;19.60;1.00
11107;DHT22;5607;48.302;14.294;2023-07-31T00:44:39;19.60;1.00
11107;DHT22;5607;48.302;14.294;2023-07-31T00:47:25;19.70;1.00
11107;DHT22;5607;48.302;14.294;2023-07-31T00:50:11;19.70;1.00
11107;DHT22;5607;48.302;14.294;2023-07-31T00:52:59;19.70;1.00
11107;DHT22;5607;48.302;14.294;2023-07-31T00:55:45;19.50;1.00
11107;DHT22;5607;48.302;14.294;2023-07-31T00:58:31;19.20;1.00
11107;DHT22;5607;48.302;14.294;2023-07-31T01:01:18;19.10;3.30
11107;DHT22;5607;48.302;14.294;2023-07-31T01:04:04;19.10;1.00
11107;DHT22;5607;48.302;14.294;2023-07-31T01:12:41;19.00;1.00
11107;DHT22;5607;48.302;14.294;2023-07-31T01:15:28;19.00;1.00
11107;DHT22;5607;48.302;14.294;2023-07-31T01:18:14;19.10;1.00
11107;DHT22;5607;48.302;14.294;2023-07-31T01:21:06;19.10;1.00
11107;DHT22;5607;48.302;14.294;2023-07-31T01:26:55;19.30;1.00
11107;DHT22;5607;48.302;14.294;2023-07-31T01:29:43;19.30;1.00
11107;DHT22;5607;48.302;14.294;2023-07-31T01:32:30;19.30;1.00
11107;DHT22;5607;48.302;14.294;2023-07-31T01:35:16;19.20;1.00
11107;DHT22;5607;48.302;14.294;2023-07-31T01:38:03;19.20;1.00
11107;DHT22;5607;48.302;14.294;2023-07-31T01:40:50;19.10;1.00
11107;DHT22;5607;48.302;14.294;2023-07-31T01:43:37;19.20;1.00
11107;DHT22;5607;48.302;14.294;2023-07-31T01:46:23;19.10;1.00
11107;DHT22;5607;48.302;14.294;2023-07-31T01:49:09;19.00;1.00
11107;DHT22;5607;48.302;14.294;2023-07-31T01:51:56;19.10;1.00
11107;DHT22;5607;48.302;14.294;2023-07-31T01:54:43;19.00;1.00
11107;DHT22;5607;48.302;14.294;2023-07-31T01:57:29;19.00;1.00
11107;DHT22;5607;48.302;14.294;2023-07-31T02:00:15;19.00;1.00
11107;DHT22;5607;48.302;14.294;2023-07-31T02:03:01;19.00;1.00
11107;DHT22;5607;48.302;14.294;2023-07-31T02:05:48;19.00;1.00
11107;DHT22;5607;48.302;14.294;2023-07-31T02:08:35;19.00;1.00
11107;DHT22;5607;48.302;14.294;2023-07-31T02:11:21;19.00;1.00
11107;DHT22;5607;48.302;14.294;2023-07-31T02:14:08;18.90;1.00
11107;DHT22;5607;48.302;14.294;2023-07-31T02:16:54;18.90;1.00
11107;DHT22;5607;48.302;14.294;2023-07-31T02:19:40;18.90;1.00
11107;DHT22;5607;48.302;14.294;2023-07-31T02:22:26;18.90;1.00
11107;DHT22;5607;48.302;14.294;2023-07-31T02:25:13;18.90;1.00
11107;DHT22;5607;48.302;14.294;2023-07-31T02:27:59;18.90;1.00
11107;DHT22;5607;48.302;14.294;2023-07-31T02:30:46;18.90;1.00
11107;DHT22;5607;48.302;14.294;2023-07-31T02:33:33;18.90;1.00
11107;DHT22;5607;48.302;14.294;2023-07-31T02:36:19;18.70;1.00
11107;DHT22;5607;48.302;14.294;2023-07-31T02:39:05;18.70;1.00
11107;DHT22;5607;48.302;14.294;2023-07-31T02:41:51;18.60;1.00
11107;DHT22;5607;48.302;14.294;2023-07-31T02:44:37;18.50;1.00
11107;DHT22;5607;48.302;14.294;2023-07-31T02:47:24;18.60;1.00
11107;DHT22;5607;48.302;14.294;2023-07-31T02:50:10;18.60;1.00
11107;DHT22;5607;48.302;14.294;2023-07-31T02:52:57;18.50;1.00
11107;DHT22;5607;48.302;14.294;2023-07-31T02:55:44;18.50;1.00
11107;DHT22;5607;48.302;14.294;2023-07-31T02:58:30;18.40;1.00
11107;DHT22;5607;48.302;14.294;2023-07-31T03:01:16;18.30;1.00
11107;DHT22;5607;48.302;14.294;2023-07-31T03:04:02;18.30;1.00
11107;DHT22;5607;48.302;14.294;2023-07-31T03:06:48;18.40;1.00
11107;DHT22;5607;48.302;14.294;2023-07-31T03:09:36;18.30;1.00
11107;DHT22;5607;48.302;14.294;2023-07-31T03:12:23;18.30;1.00
11107;DHT22;5607;48.302;14.294;2023-07-31T03:15:09;18.30;1.00
11107;DHT22;5607;48.302;14.294;2023-07-31T03:17:55;18.30;1.00
11107;DHT22;5607;48.302;14.294;2023-07-31T03:20:42;18.20;1.00
11107;DHT22;5607;48.302;14.294;2023-07-31T03:23:29;18.20;1.00
11107;DHT22;5607;48.302;14.294;2023-07-31T03:26:16;18.30;1.00
11107;DHT22;5607;48.302;14.294;2023-07-31T03:29:02;18.40;1.00
11107;DHT22;5607;48.302;14.294;2023-07-31T03:31:48;18.30;1.00
11107;DHT22;5607;48.302;14.294;2023-07-31T03:34:35;18.20;1.00
11107;DHT22;5607;48.302;14.294;2023-07-31T03:37:21;18.20;1.00
11107;DHT22;5607;48.302;14.294;2023-07-31T03:40:07;18.10;1.00
11107;DHT22;5607;48.302;14.294;2023-07-31T03:42:54;18.00;1.00
11107;DHT22;5607;48.302;14.294;2023-07-31T03:45:40;17.90;4.70
11107;DHT22;5607;48.302;14.294;2023-07-31T03:48:26;17.80;23.90
11107;DHT22;5607;48.302;14.294;2023-07-31T03:51:13;17.80;23.70
11107;DHT22;5607;48.302;14.294;2023-07-31T03:53:59;17.70;21.20
11107;DHT22;5607;48.302;14.294;2023-07-31T03:56:46;17.70;30.10
11107;DHT22;5607;48.302;14.294;2023-07-31T03:59:32;17.80;34.20
11107;DHT22;5607;48.302;14.294;2023-07-31T04:02:18;17.80;36.00
11107;DHT22;5607;48.302;14.294;2023-07-31T04:05:05;17.80;49.40
11107;DHT22;5607;48.302;14.294;2023-07-31T04:07:51;17.70;46.50
11107;DHT22;5607;48.302;14.294;2023-07-31T04:10:37;17.70;68.80
11107;DHT22;5607;48.302;14.294;2023-07-31T04:13:23;17.70;44.60
11107;DHT22;5607;48.302;14.294;2023-07-31T04:16:10;17.80;48.00
11107;DHT22;5607;48.302;14.294;2023-07-31T04:18:56;17.80;44.20
11107;DHT22;5607;48.302;14.294;2023-07-31T04:21:43;17.80;41.00
11107;DHT22;5607;48.302;14.294;2023-07-31T04:24:30;17.80;28.40
11107;DHT22;5607;48.302;14.294;2023-07-31T04:27:16;17.80;28.50
11107;DHT22;5607;48.302;14.294;2023-07-31T04:30:02;17.80;25.40
11107;DHT22;5607;48.302;14.294;2023-07-31T04:32:49;17.90;28.20
11107;DHT22;5607;48.302;14.294;2023-07-31T04:35:35;18.00;26.00
11107;DHT22;5607;48.302;14.294;2023-07-31T04:38:21;17.90;15.80
11107;DHT22;5607;48.302;14.294;2023-07-31T04:41:08;17.80;15.10
11107;DHT22;5607;48.302;14.294;2023-07-31T04:43:54;17.70;16.90
11107;DHT22;5607;48.302;14.294;2023-07-31T04:46:40;17.70;28.80
11107;DHT22;5607;48.302;14.294;2023-07-31T04:49:26;17.70;29.80
11107;DHT22;5607;48.302;14.294;2023-07-31T04:52:12;17.70;32.50
11107;DHT22;5607;48.302;14.294;2023-07-31T04:54:59;17.80;20.90
11107;DHT22;5607;48.302;14.294;2023-07-31T04:57:45;17.80;26.70
11107;DHT22;5607;48.302;14.294;2023-07-31T05:00:31;17.80;13.30
11107;DHT22;5607;48.302;14.294;2023-07-31T05:03:17;17.80;13.10
11107;DHT22;5607;48.302;14.294;2023-07-31T05:06:03;17.80;16.40
11107;DHT22;5607;48.302;14.294;2023-07-31T05:08:50;17.80;11.20
11107;DHT22;5607;48.302;14.294;2023-07-31T05:11:36;17.70;17.20
11107;DHT22;5607;48.302;14.294;2023-07-31T05:14:22;17.70;28.10
11107;DHT22;5607;48.302;14.294;2023-07-31T05:17:08;17.70;36.50
11107;DHT22;5607;48.302;14.294;2023-07-31T05:19:54;17.80;20.40
11107;DHT22;5607;48.302;14.294;2023-07-31T05:22:41;17.80;23.20
11107;DHT22;5607;48.302;14.294;2023-07-31T05:25:27;17.90;15.20
11107;DHT22;5607;48.302;14.294;2023-07-31T05:28:13;18.00;1.90
11107;DHT22;5607;48.302;14.294;2023-07-31T05:31:00;18.00;4.80
11107;DHT22;5607;48.302;14.294;2023-07-31T05:33:47;18.10;1.00
11107;DHT22;5607;48.302;14.294;2023-07-31T05:36:33;18.30;1.00
11107;DHT22;5607;48.302;14.294;2023-07-31T05:39:19;18.30;1.00
11107;DHT22;5607;48.302;14.294;2023-07-31T05:42:05;18.40;1.00
11107;DHT22;5607;48.302;14.294;2023-07-31T05:44:52;18.50;1.00
11107;DHT22;5607;48.302;14.294;2023-07-31T05:47:38;18.60;1.00
11107;DHT22;5607;48.302;14.294;2023-07-31T05:50:24;18.60;1.00
11107;DHT22;5607;48.302;14.294;2023-07-31T05:53:10;18.70;1.00
11107;DHT22;5607;48.302;14.294;2023-07-31T05:55:57;18.80;1.00
11107;DHT22;5607;48.302;14.294;2023-07-31T05:58:43;18.90;1.00
11107;DHT22;5607;48.302;14.294;2023-07-31T06:01:29;19.00;1.00
11107;DHT22;5607;48.302;14.294;2023-07-31T06:04:15;19.10;1.00
11107;DHT22;5607;48.302;14.294;2023-07-31T06:07:02;19.20;1.00
11107;DHT22;5607;48.302;14.294;2023-07-31T06:09:49;19.30;1.00
11107;DHT22;5607;48.302;14.294;2023-07-31T06:12:35;19.30;1.00
11107;DHT22;5607;48.302;14.294;2023-07-31T06:15:21;19.40;1.00
11107;DHT22;5607;48.302;14.294;2023-07-31T06:18:08;19.40;1.00
11107;DHT22;5607;48.302;14.294;2023-07-31T06:20:54;19.40;1.00
11107;DHT22;5607;48.302;14.294;2023-07-31T06:23:40;19.40;1.00
11107;DHT22;5607;48.302;14.294;2023-07-31T06:26:26;19.60;1.00
11107;DHT22;5607;48.302;14.294;2023-07-31T06:29:13;19.70;1.00
11107;DHT22;5607;48.302;14.294;2023-07-31T06:31:59;19.50;1.00
11107;DHT22;5607;48.302;14.294;2023-07-31T06:34:45;19.60;1.00
11107;DHT22;5607;48.302;14.294;2023-07-31T06:37:31;19.70;1.00
11107;DHT22;5607;48.302;14.294;2023-07-31T06:40:17;19.90;1.00
11107;DHT22;5607;48.302;14.294;2023-07-31T06:43:05;20.10;1.00
11107;DHT22;5607;48.302;14.294;2023-07-31T06:45:53;20.10;1.00
11107;DHT22;5607;48.302;14.294;2023-07-31T06:48:40;20.30;1.00
11107;DHT22;5607;48.302;14.294;2023-07-31T06:51:26;20.30;1.00
11107;DHT22;5607;48.302;14.294;2023-07-31T06:54:12;20.50;1.00
11107;DHT22;5607;48.302;14.294;2023-07-31T06:56:58;20.60;1.00
11107;DHT22;5607;48.302;14.294;2023-07-31T06:59:45;21.00;1.00
11107;DHT22;5607;48.302;14.294;2023-07-31T07:02:31;21.30;1.00
11107;DHT22;5607;48.302;14.294;2023-07-31T07:05:17;21.60;1.00
11107;DHT22;5607;48.302;14.294;2023-07-31T07:08:03;21.90;1.00
11107;DHT22;5607;48.302;14.294;2023-07-31T07:10:49;22.10;1.00
11107;DHT22;5607;48.302;14.294;2023-07-31T07:13:36;22.10;1.00
11107;DHT22;5607;48.302;14.294;2023-07-31T07:16:22;22.00;1.00
11107;DHT22;5607;48.302;14.294;2023-07-31T07:19:08;22.10;1.00
11107;DHT22;5607;48.302;14.294;2023-07-31T07:21:54;22.40;1.00
11107;DHT22;5607;48.302;14.294;2023-07-31T07:24:42;22.30;1.00
11107;DHT22;5607;48.302;14.294;2023-07-31T07:27:29;21.80;1.00
11107;DHT22;5607;48.302;14.294;2023-07-31T07:30:15;21.50;1.00
11107;DHT22;5607;48.302;14.294;2023-07-31T07:33:01;21.50;1.00
11107;DHT22;5607;48.302;14.294;2023-07-31T07:35:48;21.60;1.00
11107;DHT22;5607;48.302;14.294;2023-07-31T07:38:34;21.80;1.00
11107;DHT22;5607;48.302;14.294;2023-07-31T07:41:21;22.00;1.00
11107;DHT22;5607;48.302;14.294;2023-07-31T07:44:07;22.20;1.00
11107;DHT22;5607;48.302;14.294;2023-07-31T07:46:53;22.10;1.00
11107;DHT22;5607;48.302;14.294;2023-07-31T07:49:40;22.30;1.00
11107;DHT22;5607;48.302;14.294;2023-07-31T07:52:26;22.40;1.00
11107;DHT22;5607;48.302;14.294;2023-07-31T07:55:12;22.60;1.00
11107;DHT22;5607;48.302;14.294;2023-07-31T07:57:58;22.70;1.00
11107;DHT22;5607;48.302;14.294;2023-07-31T08:00:51;22.50;1.00
11107;DHT22;5607;48.302;14.294;2023-07-31T08:03:37;22.80;1.00
11107;DHT22;5607;48.302;14.294;2023-07-31T08:06:24;23.10;1.00
11107;DHT22;5607;48.302;14.294;2023-07-31T08:09:10;23.20;1.00
11107;DHT22;5607;48.302;14.294;2023-07-31T08:11:56;23.00;1.00
11107;DHT22;5607;48.302;14.294;2023-07-31T08:14:47;22.70;1.00
11107;DHT22;5607;48.302;14.294;2023-07-31T08:17:33;22.60;1.00
11107;DHT22;5607;48.302;14.294;2023-07-31T08:20:20;22.80;1.00
11107;DHT22;5607;48.302;14.294;2023-07-31T08:23:06;22.60;1.00
11107;DHT22;5607;48.302;14.294;2023-07-31T08:25:54;22.90;1.00
11107;DHT22;5607;48.302;14.294;2023-07-31T08:28:40;23.20;1.00
11107;DHT22;5607;48.302;14.294;2023-07-31T08:31:27;23.30;1.00
11107;DHT22;5607;48.302;14.294;2023-07-31T08:34:15;23.70;1.00
11107;DHT22;5607;48.302;14.294;2023-07-31T08:37:01;23.80;1.00
11107;DHT22;5607;48.302;14.294;2023-07-31T08:39:47;23.70;1.00
11107;DHT22;5607;48.302;14.294;2023-07-31T08:42:34;23.40;1.00
11107;DHT22;5607;48.302;14.294;2023-07-31T08:45:20;23.20;1.00
11107;DHT22;5607;48.302;14.294;2023-07-31T08:48:06;23.30;1.00
11107;DHT22;5607;48.302;14.294;2023-07-31T08:50:52;23.30;1.00
11107;DHT22;5607;48.302;14.294;2023-07-31T08:53:39;23.20;1.00
11107;DHT22;5607;48.302;14.294;2023-07-31T08:56:25;23.30;1.00
11107;DHT22;5607;48.302;14.294;2023-07-31T08:59:12;23.70;1.00
11107;DHT22;5607;48.302;14.294;2023-07-31T09:02:05;23.70;1.00
11107;DHT22;5607;48.302;14.294;2023-07-31T09:04:52;23.80;1.00
11107;DHT22;5607;48.302;14.294;2023-07-31T09:07:38;23.60;1.00
11107;DHT22;5607;48.302;14.294;2023-07-31T09:10:25;24.00;1.00
11107;DHT22;5607;48.302;14.294;2023-07-31T09:13:12;24.10;1.00
11107;DHT22;5607;48.302;14.294;2023-07-31T09:15:58;24.00;1.00
11107;DHT22;5607;48.302;14.294;2023-07-31T09:18:54;23.90;1.00
11107;DHT22;5607;48.302;14.294;2023-07-31T09:21:48;23.90;1.00
11107;DHT22;5607;48.302;14.294;2023-07-31T09:24:34;24.00;1.00
11107;DHT22;5607;48.302;14.294;2023-07-31T09:27:21;24.00;1.00
11107;DHT22;5607;48.302;14.294;2023-07-31T09:30:07;24.30;1.00
11107;DHT22;5607;48.302;14.294;2023-07-31T09:33:00;24.80;1.00
11107;DHT22;5607;48.302;14.294;2023-07-31T09:35:48;24.70;1.00
11107;DHT22;5607;48.302;14.294;2023-07-31T09:38:34;24.50;1.00
11107;DHT22;5607;48.302;14.294;2023-07-31T09:41:20;24.90;1.00
11107;DHT22;5607;48.302;14.294;2023-07-31T09:44:07;25.00;1.00
11107;DHT22;5607;48.302;14.294;2023-07-31T09:46:53;25.30;1.00
11107;DHT22;5607;48.302;14.294;2023-07-31T09:49:45;25.30;1.00
11107;DHT22;5607;48.302;14.294;2023-07-31T09:52:31;25.20;1.00
11107;DHT22;5607;48.302;14.294;2023-07-31T09:55:17;25.30;1.00
11107;DHT22;5607;48.302;14.294;2023-07-31T09:58:05;25.10;1.00
11107;DHT22;5607;48.302;14.294;2023-07-31T10:00:51;24.60;1.00
11107;DHT22;5607;48.302;14.294;2023-07-31T10:03:37;24.40;1.00
11107;DHT22;5607;48.302;14.294;2023-07-31T10:06:25;24.20;1.00
11107;DHT22;5607;48.302;14.294;2023-07-31T10:09:13;24.10;1.00
11107;DHT22;5607;48.302;14.294;2023-07-31T10:12:01;24.30;1.00
11107;DHT22;5607;48.302;14.294;2023-07-31T10:14:49;24.00;1.00
11107;DHT22;5607;48.302;14.294;2023-07-31T10:17:36;23.90;1.00
11107;DHT22;5607;48.302;14.294;2023-07-31T10:20:23;23.80;1.00
11107;DHT22;5607;48.302;14.294;2023-07-31T10:23:09;23.70;1.00
11107;DHT22;5607;48.302;14.294;2023-07-31T10:25:56;23.70;1.00
11107;DHT22;5607;48.302;14.294;2023-07-31T10:28:43;24.20;1.00
11107;DHT22;5607;48.302;14.294;2023-07-31T10:31:30;24.40;1.00
11107;DHT22;5607;48.302;14.294;2023-07-31T10:34:16;24.70;1.00
11107;DHT22;5607;48.302;14.294;2023-07-31T10:43:10;25.20;1.00
11107;DHT22;5607;48.302;14.294;2023-07-31T10:46:11;25.50;1.00
11107;DHT22;5607;48.302;14.294;2023-07-31T10:48:58;25.40;1.00
11107;DHT22;5607;48.302;14.294;2023-07-31T10:51:46;25.50;1.00
11107;DHT22;5607;48.302;14.294;2023-07-31T10:54:33;25.70;1.00
11107;DHT22;5607;48.302;14.294;2023-07-31T10:57:20;26.00;1.00
11107;DHT22;5607;48.302;14.294;2023-07-31T11:03:06;26.30;1.00
11107;DHT22;5607;48.302;14.294;2023-07-31T11:06:01;25.90;1.00
11107;DHT22;5607;48.302;14.294;2023-07-31T11:08:49;25.70;1.00
11107;DHT22;5607;48.302;14.294;2023-07-31T11:11:36;25.80;1.00
11107;DHT22;5607;48.302;14.294;2023-07-31T11:14:22;26.00;1.00
11107;DHT22;5607;48.302;14.294;2023-07-31T11:17:08;26.20;1.00
11107;DHT22;5607;48.302;14.294;2023-07-31T11:19:55;26.10;1.00
11107;DHT22;5607;48.302;14.294;2023-07-31T11:22:41;26.00;1.00
11107;DHT22;5607;48.302;14.294;2023-07-31T11:25:30;26.20;1.00
11107;DHT22;5607;48.302;14.294;2023-07-31T11:28:19;26.20;1.00
11107;DHT22;5607;48.302;14.294;2023-07-31T11:31:05;26.50;1.00
11107;DHT22;5607;48.302;14.294;2023-07-31T11:34:06;26.70;1.00
11107;DHT22;5607;48.302;14.294;2023-07-31T11:36:56;27.10;1.00
11107;DHT22;5607;48.302;14.294;2023-07-31T11:39:42;26.60;1.00
11107;DHT22;5607;48.302;14.294;2023-07-31T11:42:28;26.30;1.00
11107;DHT22;5607;48.302;14.294;2023-07-31T11:45:14;26.50;1.00
11107;DHT22;5607;48.302;14.294;2023-07-31T11:48:01;26.60;1.00
11107;DHT22;5607;48.302;14.294;2023-07-31T11:50:47;26.90;1.00
11107;DHT22;5607;48.302;14.294;2023-07-31T11:56:21;26.20;1.00
11107;DHT22;5607;48.302;14.294;2023-07-31T11:59:09;25.60;1.00
11107;DHT22;5607;48.302;14.294;2023-07-31T12:01:55;25.60;1.00
11107;DHT22;5607;48.302;14.294;2023-07-31T12:04:42;25.60;1.00
11107;DHT22;5607;48.302;14.294;2023-07-31T12:07:42;25.90;1.00
11107;DHT22;5607;48.302;14.294;2023-07-31T12:10:29;26.00;1.00
11107;DHT22;5607;48.302;14.294;2023-07-31T12:13:23;26.40;1.00
11107;DHT22;5607;48.302;14.294;2023-07-31T12:16:10;26.40;1.00
11107;DHT22;5607;48.302;14.294;2023-07-31T12:18:56;26.60;1.00
11107;DHT22;5607;48.302;14.294;2023-07-31T12:21:42;27.00;1.00
11107;DHT22;5607;48.302;14.294;2023-07-31T12:24:28;27.10;1.00
11107;DHT22;5607;48.302;14.294;2023-07-31T12:27:15;26.80;1.00
11107;DHT22;5607;48.302;14.294;2023-07-31T12:30:01;26.80;1.00
11107;DHT22;5607;48.302;14.294;2023-07-31T12:32:47;26.60;1.00
11107;DHT22;5607;48.302;14.294;2023-07-31T12:35:37;26.40;1.00
11107;DHT22;5607;48.302;14.294;2023-07-31T12:38:24;26.40;1.00
11107;DHT22;5607;48.302;14.294;2023-07-31T12:41:10;26.70;1.00
11107;DHT22;5607;48.302;14.294;2023-07-31T12:43:57;27.20;1.00
11107;DHT22;5607;48.302;14.294;2023-07-31T12:46:43;27.30;1.00
11107;DHT22;5607;48.302;14.294;2023-07-31T12:49:29;26.90;1.00
11107;DHT22;5607;48.302;14.294;2023-07-31T12:52:16;26.90;1.00
11107;DHT22;5607;48.302;14.294;2023-07-31T12:55:02;27.40;1.00
11107;DHT22;5607;48.302;14.294;2023-07-31T12:57:48;27.80;1.00
11107;DHT22;5607;48.302;14.294;2023-07-31T13:00:34;27.70;1.00
11107;DHT22;5607;48.302;14.294;2023-07-31T13:03:21;27.80;1.00
11107;DHT22;5607;48.302;14.294;2023-07-31T13:06:07;28.00;1.00
11107;DHT22;5607;48.302;14.294;2023-07-31T13:08:54;28.30;1.00
11107;DHT22;5607;48.302;14.294;2023-07-31T13:11:40;27.40;1.00
11107;DHT22;5607;48.302;14.294;2023-07-31T13:14:27;27.60;1.00
11107;DHT22;5607;48.302;14.294;2023-07-31T13:17:13;27.70;1.00
11107;DHT22;5607;48.302;14.294;2023-07-31T13:19:59;28.10;1.00
11107;DHT22;5607;48.302;14.294;2023-07-31T13:22:45;28.50;1.00
11107;DHT22;5607;48.302;14.294;2023-07-31T13:25:31;28.30;1.00
11107;DHT22;5607;48.302;14.294;2023-07-31T13:28:18;28.50;1.00
11107;DHT22;5607;48.302;14.294;2023-07-31T13:31:04;28.60;1.00
11107;DHT22;5607;48.302;14.294;2023-07-31T13:33:50;28.50;1.00
11107;DHT22;5607;48.302;14.294;2023-07-31T13:36:37;28.30;1.00
11107;DHT22;5607;48.302;14.294;2023-07-31T13:39:23;28.70;1.00
11107;DHT22;5607;48.302;14.294;2023-07-31T13:42:10;28.30;1.00
11107;DHT22;5607;48.302;14.294;2023-07-31T13:44:58;28.40;1.00
11107;DHT22;5607;48.302;14.294;2023-07-31T13:47:44;28.70;1.00
11107;DHT22;5607;48.302;14.294;2023-07-31T13:50:30;29.30;1.00
11107;DHT22;5607;48.302;14.294;2023-07-31T13:53:16;30.00;1.00
11107;DHT22;5607;48.302;14.294;2023-07-31T13:56:02;30.90;1.00
11107;DHT22;5607;48.302;14.294;2023-07-31T13:58:49;30.90;1.00
11107;DHT22;5607;48.302;14.294;2023-07-31T14:01:35;32.10;1.00
11107;DHT22;5607;48.302;14.294;2023-07-31T14:07:27;34.90;1.00
11107;DHT22;5607;48.302;14.294;2023-07-31T14:10:13;34.70;1.00
11107;DHT22;5607;48.302;14.294;2023-07-31T14:13:00;37.00;1.00
11107;DHT22;5607;48.302;14.294;2023-07-31T14:15:46;39.40;1.00
11107;DHT22;5607;48.302;14.294;2023-07-31T14:18:32;42.00;1.00
11107;DHT22;5607;48.302;14.294;2023-07-31T14:21:18;42.40;1.00
11107;DHT22;5607;48.302;14.294;2023-07-31T14:24:05;44.20;1.00
11107;DHT22;5607;48.302;14.294;2023-07-31T14:26:51;42.00;1.00
11107;DHT22;5607;48.302;14.294;2023-07-31T14:29:37;38.90;1.00
11107;DHT22;5607;48.302;14.294;2023-07-31T14:32:24;37.70;1.00
11107;DHT22;5607;48.302;14.294;2023-07-31T14:35:11;37.80;1.00
11107;DHT22;5607;48.302;14.294;2023-07-31T14:37:57;39.30;1.00
11107;DHT22;5607;48.302;14.294;2023-07-31T14:40:43;43.00;1.00
11107;DHT22;5607;48.302;14.294;2023-07-31T14:43:30;43.20;1.00
11107;DHT22;5607;48.302;14.294;2023-07-31T14:46:16;43.70;1.00
11107;DHT22;5607;48.302;14.294;2023-07-31T14:49:02;45.60;1.00
11107;DHT22;5607;48.302;14.294;2023-07-31T14:51:48;46.30;1.00
11107;DHT22;5607;48.302;14.294;2023-07-31T14:54:36;44.10;1.00
11107;DHT22;5607;48.302;14.294;2023-07-31T14:57:22;44.20;1.00
11107;DHT22;5607;48.302;14.294;2023-07-31T15:00:08;44.60;1.00
11107;DHT22;5607;48.302;14.294;2023-07-31T15:02:56;44.20;1.00
11107;DHT22;5607;48.302;14.294;2023-07-31T15:05:42;43.50;1.00
11107;DHT22;5607;48.302;14.294;2023-07-31T15:08:29;43.20;1.00
11107;DHT22;5607;48.302;14.294;2023-07-31T15:11:15;43.10;1.00
11107;DHT22;5607;48.302;14.294;2023-07-31T15:14:01;43.60;1.00
11107;DHT22;5607;48.302;14.294;2023-07-31T15:16:48;45.30;1.00
11107;DHT22;5607;48.302;14.294;2023-07-31T15:19:34;46.80;1.00
11107;DHT22;5607;48.302;14.294;2023-07-31T15:22:22;45.10;1.00
11107;DHT22;5607;48.302;14.294;2023-07-31T15:25:08;45.10;1.00
11107;DHT22;5607;48.302;14.294;2023-07-31T15:27:55;46.40;1.00
11107;DHT22;5607;48.302;14.294;2023-07-31T15:30:41;47.70;1.00
11107;DHT22;5607;48.302;14.294;2023-07-31T15:33:27;45.50;1.00
11107;DHT22;5607;48.302;14.294;2023-07-31T15:36:13;42.00;1.00
11107;DHT22;5607;48.302;14.294;2023-07-31T15:39:00;38.90;1.00
11107;DHT22;5607;48.302;14.294;2023-07-31T15:41:46;36.30;1.00
11107;DHT22;5607;48.302;14.294;2023-07-31T15:44:32;34.10;1.00
11107;DHT22;5607;48.302;14.294;2023-07-31T15:47:18;33.50;1.00
11107;DHT22;5607;48.302;14.294;2023-07-31T15:50:05;32.50;1.00
11107;DHT22;5607;48.302;14.294;2023-07-31T15:52:51;31.30;1.00
11107;DHT22;5607;48.302;14.294;2023-07-31T15:55:37;31.20;1.00
11107;DHT22;5607;48.302;14.294;2023-07-31T15:58:23;30.90;1.00
11107;DHT22;5607;48.302;14.294;2023-07-31T16:01:10;30.70;1.00
11107;DHT22;5607;48.302;14.294;2023-07-31T16:03:56;30.50;1.00
11107;DHT22;5607;48.302;14.294;2023-07-31T16:06:42;30.20;1.00
11107;DHT22;5607;48.302;14.294;2023-07-31T16:09:28;29.90;1.00
11107;DHT22;5607;48.302;14.294;2023-07-31T16:12:15;29.70;1.00
11107;DHT22;5607;48.302;14.294;2023-07-31T16:15:01;29.80;1.00
11107;DHT22;5607;48.302;14.294;2023-07-31T16:17:47;29.80;1.00
11107;DHT22;5607;48.302;14.294;2023-07-31T16:20:35;29.60;1.00
11107;DHT22;5607;48.302;14.294;2023-07-31T16:23:22;29.20;1.00
11107;DHT22;5607;48.302;14.294;2023-07-31T16:26:08;28.90;1.00
11107;DHT22;5607;48.302;14.294;2023-07-31T16:28:54;28.80;1.00
11107;DHT22;5607;48.302;14.294;2023-07-31T16:31:40;28.70;1.00
11107;DHT22;5607;48.302;14.294;2023-07-31T16:34:26;28.70;1.00
11107;DHT22;5607;48.302;14.294;2023-07-31T16:37:13;28.70;1.00
11107;DHT22;5607;48.302;14.294;2023-07-31T16:40:00;28.50;1.00
11107;DHT22;5607;48.302;14.294;2023-07-31T16:42:46;28.60;1.00
11107;DHT22;5607;48.302;14.294;2023-07-31T16:45:33;28.50;1.00
11107;DHT22;5607;48.302;14.294;2023-07-31T16:48:19;28.70;1.00
11107;DHT22;5607;48.302;14.294;2023-07-31T16:51:05;28.80;1.00
11107;DHT22;5607;48.302;14.294;2023-07-31T16:53:51;28.80;1.00
11107;DHT22;5607;48.302;14.294;2023-07-31T16:56:37;28.50;1.00
11107;DHT22;5607;48.302;14.294;2023-07-31T16:59:24;28.40;1.00
11107;DHT22;5607;48.302;14.294;2023-07-31T17:02:10;28.40;1.00
11107;DHT22;5607;48.302;14.294;2023-07-31T17:04:56;28.20;1.00
11107;DHT22;5607;48.302;14.294;2023-07-31T17:07:42;28.10;1.00
11107;DHT22;5607;48.302;14.294;2023-07-31T17:10:29;28.10;1.00
11107;DHT22;5607;48.302;14.294;2023-07-31T17:13:15;28.10;1.00
11107;DHT22;5607;48.302;14.294;2023-07-31T17:16:01;28.20;1.00
11107;DHT22;5607;48.302;14.294;2023-07-31T17:18:48;28.00;1.00
11107;DHT22;5607;48.302;14.294;2023-07-31T17:21:34;27.70;1.00
11107;DHT22;5607;48.302;14.294;2023-07-31T17:24:20;27.40;1.00
11107;DHT22;5607;48.302;14.294;2023-07-31T17:27:07;27.20;1.00
11107;DHT22;5607;48.302;14.294;2023-07-31T17:29:53;27.10;1.00
11107;DHT22;5607;48.302;14.294;2023-07-31T17:32:41;26.90;1.00
11107;DHT22;5607;48.302;14.294;2023-07-31T17:35:27;26.90;1.00
11107;DHT22;5607;48.302;14.294;2023-07-31T17:38:15;26.90;1.00
11107;DHT22;5607;48.302;14.294;2023-07-31T17:41:02;26.90;1.00
11107;DHT22;5607;48.302;14.294;2023-07-31T17:43:49;26.80;1.00
11107;DHT22;5607;48.302;14.294;2023-07-31T17:46:35;26.60;1.00
11107;DHT22;5607;48.302;14.294;2023-07-31T17:49:21;26.50;1.00
11107;DHT22;5607;48.302;14.294;2023-07-31T17:52:07;26.50;1.00
11107;DHT22;5607;48.302;14.294;2023-07-31T17:54:54;26.40;1.00
11107;DHT22;5607;48.302;14.294;2023-07-31T17:57:40;26.30;1.00
11107;DHT22;5607;48.302;14.294;2023-07-31T18:00:26;26.20;1.00
11107;DHT22;5607;48.302;14.294;2023-07-31T18:03:12;26.10;1.00
11107;DHT22;5607;48.302;14.294;2023-07-31T18:05:58;26.00;1.00
11107;DHT22;5607;48.302;14.294;2023-07-31T18:08:45;26.10;1.00
11107;DHT22;5607;48.302;14.294;2023-07-31T18:11:32;26.00;1.00